^^
Grace C. Lehan Memorial Weather Station Historical Data
Daily Summary for June 16, 2021 Units:  Both    English   Metric
Daily Weekly Monthly Yearly
  High: Low: Average:
Temperature: 76.2 °F /  24.6 °C 59.9 °F /  15.5 °C 68.1 °F /  20.1 °C
Dew Point: 59.2 °F /  15.1 °C 47.6 °F /  8.7 °C 54 °F /  12.2 °C
Humidity: 83% 38.4% 63%
Wind Speed: 9.7mph /  15.6km/h - 2.2mph /  3.5km/h
Wind Gust: 18mph /  29km/h - -
Wind- - WNW
Pressure: 29.79 in /  1008.7 hPa 29.69 in /  1005.3 hPa -
Precipitation: 0.00 in /  0 mm    
 
 
Tabular Data for June 16, 2021
Time Temperature Dew Point Pressure Wind Wind Speed Wind Gust Humidity Rainfall Rate (Hourly) solar
00:04 65 °F /  18.3 °C 59.1 °F /  15.1 °C 29.72in /  1006.3hPa Calm   5mph /  8km/h 81% 0.00in /  0mm 0 W/m2
00:09 64.9 °F /  18.3 °C 59 °F /  15 °C 29.72in /  1006.3hPa Calm   2mph /  3.2km/h 81% 0.00in /  0mm 0 W/m2
00:14 64.8 °F /  18.2 °C 59.2 °F /  15.1 °C 29.72in /  1006.3hPa Calm   2mph /  3.2km/h 82% 0.00in /  0mm 0 W/m2
00:19 64.7 °F /  18.2 °C 59.1 °F /  15.1 °C 29.72in /  1006.3hPa Calm   2mph /  3.2km/h 82% 0.00in /  0mm 0 W/m2
00:24 64.6 °F /  18.1 °C 59 °F /  15 °C 29.72in /  1006.3hPa Calm   2mph /  3.2km/h 82% 0.00in /  0mm 0 W/m2
00:29 64.4 °F /  18 °C 58.8 °F /  14.9 °C 29.71in /  1006hPa Calm   2mph /  3.2km/h 82% 0.00in /  0mm 0 W/m2
00:34 64.3 °F /  17.9 °C 58.9 °F /  14.9 °C 29.72in /  1006.3hPa WNW 0.1mph /  0.2km/h 3mph /  4.8km/h 82.6% 0.00in /  0mm 0 W/m2
00:39 64.1 °F /  17.8 °C 58.9 °F /  14.9 °C 29.72in /  1006.3hPa Calm   3mph /  4.8km/h 83% 0.00in /  0mm 0 W/m2
00:44 64 °F /  17.8 °C 58.8 °F /  14.9 °C 29.72in /  1006.3hPa WNW 1mph /  1.6km/h 5mph /  8km/h 83% 0.00in /  0mm 0 W/m2
00:49 64 °F /  17.8 °C 58.7 °F /  14.8 °C 29.72in /  1006.3hPa WNW 0.7mph /  1.1km/h 6mph /  9.7km/h 83% 0.00in /  0mm 0 W/m2
00:54 63.9 °F /  17.7 °C 58.6 °F /  14.8 °C 29.72in /  1006.3hPa WNW 0.4mph /  0.6km/h 6mph /  9.7km/h 83% 0.00in /  0mm 0 W/m2
00:59 63.9 °F /  17.7 °C 58.6 °F /  14.8 °C 29.72in /  1006.3hPa WNW 0.3mph /  0.5km/h 6mph /  9.7km/h 83% 0.00in /  0mm 0 W/m2
01:04 63.9 °F /  17.7 °C 58.6 °F /  14.8 °C 29.72in /  1006.3hPa NW 1.3mph /  2.1km/h 10mph /  16.1km/h 83% 0.00in /  0mm 0 W/m2
01:09 63.9 °F /  17.7 °C 58.6 °F /  14.8 °C 29.71in /  1006hPa WNW 0.7mph /  1.1km/h 10mph /  16.1km/h 82.9% 0.00in /  0mm 0 W/m2
01:14 63.9 °F /  17.7 °C 58.4 °F /  14.7 °C 29.71in /  1006hPa NW 0.2mph /  0.3km/h 10mph /  16.1km/h 82.3% 0.00in /  0mm 0 W/m2
01:19 63.9 °F /  17.7 °C 58.5 °F /  14.7 °C 29.71in /  1006hPa NW 0.5mph /  0.8km/h 10mph /  16.1km/h 82.6% 0.00in /  0mm 0 W/m2
01:24 63.9 °F /  17.7 °C 58.3 °F /  14.6 °C 29.71in /  1006hPa NW 0.5mph /  0.8km/h 10mph /  16.1km/h 82% 0.00in /  0mm 0 W/m2
01:29 63.8 °F /  17.7 °C 58.2 °F /  14.6 °C 29.70in /  1005.6hPa WNW 0.7mph /  1.1km/h 10mph /  16.1km/h 82% 0.00in /  0mm 0 W/m2
01:34 63.8 °F /  17.7 °C 58.2 °F /  14.6 °C 29.70in /  1005.6hPa WNW 0.6mph /  1km/h 10mph /  16.1km/h 82% 0.00in /  0mm 0 W/m2
01:39 63.8 °F /  17.7 °C 58.2 °F /  14.6 °C 29.70in /  1005.6hPa WNW 0.3mph /  0.5km/h 5mph /  8km/h 82% 0.00in /  0mm 0 W/m2
01:44 63.8 °F /  17.7 °C 58.2 °F /  14.6 °C 29.70in /  1005.6hPa Calm   5mph /  8km/h 82% 0.00in /  0mm 0 W/m2
01:49 63.7 °F /  17.6 °C 58.2 °F /  14.6 °C 29.70in /  1005.6hPa WNW 0.1mph /  0.2km/h 5mph /  8km/h 82% 0.00in /  0mm 0 W/m2
01:54 63.7 °F /  17.6 °C 58.1 °F /  14.5 °C 29.70in /  1005.6hPa WNW 0.4mph /  0.6km/h 5mph /  8km/h 82% 0.00in /  0mm 0 W/m2
01:59 63.6 °F /  17.6 °C 58 °F /  14.4 °C 29.70in /  1005.6hPa Calm   5mph /  8km/h 82% 0.00in /  0mm 0 W/m2
02:04 63.5 °F /  17.5 °C 57.9 °F /  14.4 °C 29.70in /  1005.6hPa Calm   5mph /  8km/h 82% 0.00in /  0mm 0 W/m2
02:09 63.4 °F /  17.4 °C 57.8 °F /  14.3 °C 29.70in /  1005.6hPa Calm     82% 0.00in /  0mm 0 W/m2
02:14 63.3 °F /  17.4 °C 57.7 °F /  14.3 °C 29.70in /  1005.6hPa Calm     82% 0.00in /  0mm 0 W/m2
02:19 63.2 °F /  17.3 °C 57.6 °F /  14.2 °C 29.70in /  1005.6hPa Calm     82% 0.00in /  0mm 0 W/m2
02:24 63 °F /  17.2 °C 57.4 °F /  14.1 °C 29.70in /  1005.6hPa WNW 0.8mph /  1.3km/h 6mph /  9.7km/h 82% 0.00in /  0mm 0 W/m2
02:29 62.9 °F /  17.2 °C 57.3 °F /  14.1 °C 29.70in /  1005.6hPa NW 0.1mph /  0.2km/h 6mph /  9.7km/h 82% 0.00in /  0mm 0 W/m2
02:34 62.8 °F /  17.1 °C 57.2 °F /  14 °C 29.69in /  1005.3hPa NW 0.8mph /  1.3km/h 6mph /  9.7km/h 82% 0.00in /  0mm 0 W/m2
02:39 62.7 °F /  17.1 °C 57.1 °F /  13.9 °C 29.69in /  1005.3hPa NW 0.1mph /  0.2km/h 4mph /  6.4km/h 82% 0.00in /  0mm 0 W/m2
02:44 62.7 °F /  17.1 °C 57.1 °F /  13.9 °C 29.69in /  1005.3hPa Calm   4mph /  6.4km/h 82% 0.00in /  0mm 0 W/m2
02:49 62.7 °F /  17.1 °C 56.8 °F /  13.8 °C 29.69in /  1005.3hPa NW 0.1mph /  0.2km/h 4mph /  6.4km/h 81.2% 0.00in /  0mm 0 W/m2
02:54 62.6 °F /  17 °C 56.7 °F /  13.7 °C 29.70in /  1005.6hPa NW 0.3mph /  0.5km/h 4mph /  6.4km/h 81% 0.00in /  0mm 0 W/m2
02:59 62.6 °F /  17 °C 56.6 °F /  13.7 °C 29.70in /  1005.6hPa NNW 0.7mph /  1.1km/h 6mph /  9.7km/h 81% 0.00in /  0mm 0 W/m2
03:04 62.5 °F /  16.9 °C 56.6 °F /  13.7 °C 29.70in /  1005.6hPa Calm   6mph /  9.7km/h 80.9% 0.00in /  0mm 0 W/m2
03:09 62.4 °F /  16.9 °C 56.2 °F /  13.4 °C 29.70in /  1005.6hPa WNW 0.6mph /  1km/h 5mph /  8km/h 80% 0.00in /  0mm 0 W/m2
03:14 62.3 °F /  16.8 °C 56.1 °F /  13.4 °C 29.70in /  1005.6hPa WNW 0.4mph /  0.6km/h 5mph /  8km/h 80% 0.00in /  0mm 0 W/m2
03:19 62.2 °F /  16.8 °C 56 °F /  13.3 °C 29.70in /  1005.6hPa WNW 0.3mph /  0.5km/h 5mph /  8km/h 80% 0.00in /  0mm 0 W/m2
03:24 62.1 °F /  16.7 °C 55.9 °F /  13.3 °C 29.71in /  1006hPa Calm   5mph /  8km/h 80% 0.00in /  0mm 0 W/m2
03:29 62 °F /  16.7 °C 55.8 °F /  13.2 °C 29.71in /  1006hPa Calm   5mph /  8km/h 80% 0.00in /  0mm 0 W/m2
03:34 62 °F /  16.7 °C 55.5 °F /  13.1 °C 29.71in /  1006hPa Calm   5mph /  8km/h 79.3% 0.00in /  0mm 0 W/m2
03:39 61.8 °F /  16.6 °C 55.3 °F /  12.9 °C 29.70in /  1005.6hPa Calm     79% 0.00in /  0mm 0 W/m2
03:44 61.7 °F /  16.5 °C 55.1 °F /  12.8 °C 29.70in /  1005.6hPa Calm   1mph /  1.6km/h 79% 0.00in /  0mm 0 W/m2
03:49 61.6 °F /  16.4 °C 55 °F /  12.8 °C 29.71in /  1006hPa Calm   1mph /  1.6km/h 79% 0.00in /  0mm 0 W/m2
03:54 61.4 °F /  16.3 °C 54.9 °F /  12.7 °C 29.71in /  1006hPa WNW 0.7mph /  1.1km/h 7mph /  11.3km/h 79% 0.00in /  0mm 0 W/m2
03:59 61.3 °F /  16.3 °C 54.7 °F /  12.6 °C 29.71in /  1006hPa WNW 1.1mph /  1.8km/h 7mph /  11.3km/h 78.9% 0.00in /  0mm 0 W/m2
04:09 61 °F /  16.1 °C 53.7 °F /  12.1 °C 29.71in /  1006hPa NW 2.4mph /  3.9km/h 10mph /  16.1km/h 77% 0.00in /  0mm 0 W/m2
04:14 60.9 °F /  16.1 °C 53.3 °F /  11.8 °C 29.71in /  1006hPa NW 1mph /  1.6km/h 10mph /  16.1km/h 76% 0.00in /  0mm 0 W/m2
04:19 60.9 °F /  16.1 °C 53.2 °F /  11.8 °C 29.71in /  1006hPa WNW 1.3mph /  2.1km/h 10mph /  16.1km/h 75.8% 0.00in /  0mm 0 W/m2
04:24 60.9 °F /  16.1 °C 52.9 °F /  11.6 °C 29.71in /  1006hPa NW 1.1mph /  1.8km/h 10mph /  16.1km/h 75% 0.00in /  0mm 0 W/m2
04:29 60.9 °F /  16.1 °C 52.9 °F /  11.6 °C 29.71in /  1006hPa WNW 1.5mph /  2.4km/h 10mph /  16.1km/h 75% 0.00in /  0mm 0 W/m2
04:33 60.8 °F /  16 °C 52.8 °F /  11.6 °C 29.71in /  1006hPa NW 2.2mph /  3.5km/h 11mph /  17.7km/h 75% 0.00in /  0mm 0 W/m2
04:39 60.8 °F /  16 °C 52.8 °F /  11.6 °C 29.71in /  1006hPa WNW 2.5mph /  4km/h 11mph /  17.7km/h 74.8% 0.00in /  0mm 0 W/m2
04:44 60.8 °F /  16 °C 52.6 °F /  11.4 °C 29.71in /  1006hPa WNW 1.3mph /  2.1km/h 11mph /  17.7km/h 74.3% 0.00in /  0mm 0 W/m2
04:49 60.7 °F /  15.9 °C 52.4 °F /  11.3 °C 29.71in /  1006hPa WNW 0.2mph /  0.3km/h 11mph /  17.7km/h 74% 0.00in /  0mm 0 W/m2
04:54 60.7 °F /  15.9 °C 52.3 °F /  11.3 °C 29.71in /  1006hPa NW 0.9mph /  1.4km/h 11mph /  17.7km/h 74% 0.00in /  0mm 0 W/m2
04:59 60.6 °F /  15.9 °C 52.2 °F /  11.2 °C 29.71in /  1006hPa NW 1.4mph /  2.3km/h 11mph /  17.7km/h 74% 0.00in /  0mm 0 W/m2
05:04 60.5 °F /  15.8 °C 52.1 °F /  11.2 °C 29.71in /  1006hPa WNW 0.5mph /  0.8km/h 11mph /  17.7km/h 74% 0.00in /  0mm 0 W/m2
05:09 60.3 °F /  15.7 °C 52.2 °F /  11.2 °C 29.71in /  1006hPa WNW 0.9mph /  1.4km/h 6mph /  9.7km/h 74.5% 0.00in /  0mm 0 W/m2
05:14 60.2 °F /  15.7 °C 52.2 °F /  11.2 °C 29.72in /  1006.3hPa WNW 1.4mph /  2.3km/h 6mph /  9.7km/h 74.7% 0.00in /  0mm 0 W/m2
05:19 60.1 °F /  15.6 °C 52.1 °F /  11.2 °C 29.72in /  1006.3hPa WNW 1.5mph /  2.4km/h 11mph /  17.7km/h 74.8% 0.00in /  0mm 0 W/m2
05:24 60.1 °F /  15.6 °C 52.1 °F /  11.2 °C 29.72in /  1006.3hPa NW 0.9mph /  1.4km/h 11mph /  17.7km/h 75% 0.00in /  0mm 0 W/m2
05:29 60 °F /  15.6 °C 52.1 °F /  11.2 °C 29.72in /  1006.3hPa NW 0.9mph /  1.4km/h 11mph /  17.7km/h 75% 0.00in /  0mm 5 W/m2
05:34 59.9 °F /  15.5 °C 52 °F /  11.1 °C 29.73in /  1006.7hPa West 1.2mph /  1.9km/h 11mph /  17.7km/h 75% 0.00in /  0mm 7 W/m2
05:39 59.9 °F /  15.5 °C 52 °F /  11.1 °C 29.73in /  1006.7hPa WNW 2mph /  3.2km/h 7mph /  11.3km/h 75.1% 0.00in /  0mm 9 W/m2
05:44 59.9 °F /  15.5 °C 51.6 °F /  10.9 °C 29.73in /  1006.7hPa NW 2.2mph /  3.5km/h 10mph /  16.1km/h 74% 0.00in /  0mm 11 W/m2
05:49 59.9 °F /  15.5 °C 51.6 °F /  10.9 °C 29.74in /  1007hPa WNW 2.1mph /  3.4km/h 11mph /  17.7km/h 74% 0.00in /  0mm 12 W/m2
05:54 60 °F /  15.6 °C 51.7 °F /  10.9 °C 29.74in /  1007hPa NW 1.3mph /  2.1km/h 11mph /  17.7km/h 74% 0.00in /  0mm 16 W/m2
05:59 60.1 °F /  15.6 °C 51.8 °F /  11 °C 29.74in /  1007hPa NW 1.7mph /  2.7km/h 11mph /  17.7km/h 74% 0.00in /  0mm 16 W/m2
06:04 60.2 °F /  15.7 °C 51.9 °F /  11.1 °C 29.74in /  1007hPa NNW 1.3mph /  2.1km/h 11mph /  17.7km/h 74% 0.00in /  0mm 18 W/m2
06:09 60.2 °F /  15.7 °C 52 °F /  11.1 °C 29.74in /  1007hPa Calm   5mph /  8km/h 74.2% 0.00in /  0mm 19 W/m2
06:14 60.3 °F /  15.7 °C 52 °F /  11.1 °C 29.74in /  1007hPa NNW 0.3mph /  0.5km/h 5mph /  8km/h 74% 0.00in /  0mm 21 W/m2
06:19 60.4 °F /  15.8 °C 52.1 °F /  11.2 °C 29.74in /  1007hPa NNW 0.3mph /  0.5km/h 5mph /  8km/h 74% 0.00in /  0mm 21 W/m2
06:24 60.5 °F /  15.8 °C 52.4 °F /  11.3 °C 29.75in /  1007.3hPa NNW 0.2mph /  0.3km/h 5mph /  8km/h 74.5% 0.00in /  0mm 26 W/m2
06:29 60.7 °F /  15.9 °C 52.7 °F /  11.5 °C 29.75in /  1007.3hPa NNW 0.1mph /  0.2km/h 5mph /  8km/h 74.8% 0.00in /  0mm 35 W/m2
06:34 60.9 °F /  16.1 °C 52.8 °F /  11.6 °C 29.75in /  1007.3hPa West 0.5mph /  0.8km/h 9mph /  14.5km/h 74.9% 0.00in /  0mm 46 W/m2
06:39 61.1 °F /  16.2 °C 53.1 °F /  11.7 °C 29.75in /  1007.3hPa Calm   9mph /  14.5km/h 75% 0.00in /  0mm 49 W/m2
06:44 61.6 °F /  16.4 °C 53.7 °F /  12.1 °C 29.75in /  1007.3hPa West 0.4mph /  0.6km/h 9mph /  14.5km/h 75.2% 0.00in /  0mm 60 W/m2
06:49 62.3 °F /  16.8 °C 54 °F /  12.2 °C 29.75in /  1007.3hPa North 0.3mph /  0.5km/h 9mph /  14.5km/h 74.2% 0.00in /  0mm 67 W/m2
06:54 63.2 °F /  17.3 °C 54.5 °F /  12.5 °C 29.75in /  1007.3hPa NW 1.5mph /  2.4km/h 9mph /  14.5km/h 73.4% 0.00in /  0mm 69 W/m2
06:59 64 °F /  17.8 °C 54.9 °F /  12.7 °C 29.75in /  1007.3hPa Calm   9mph /  14.5km/h 72.1% 0.00in /  0mm 70 W/m2
07:04 64.8 °F /  18.2 °C 55.5 °F /  13.1 °C 29.76in /  1007.7hPa Calm   9mph /  14.5km/h 72% 0.00in /  0mm 72 W/m2
07:09 65.5 °F /  18.6 °C 55.7 °F /  13.2 °C 29.76in /  1007.7hPa NNW 0.6mph /  1km/h 5mph /  8km/h 70.7% 0.00in /  0mm 74 W/m2
07:14 66.1 °F /  18.9 °C 55.7 °F /  13.2 °C 29.76in /  1007.7hPa Calm   5mph /  8km/h 69.2% 0.00in /  0mm 76 W/m2
07:19 66.7 °F /  19.3 °C 56.3 °F /  13.5 °C 29.76in /  1007.7hPa NNW 0.1mph /  0.2km/h 5mph /  8km/h 69.2% 0.00in /  0mm 77 W/m2
07:24 67.2 °F /  19.6 °C 56.2 °F /  13.4 °C 29.76in /  1007.7hPa NNW 0.7mph /  1.1km/h 11mph /  17.7km/h 67.9% 0.00in /  0mm 304 W/m2
07:29 67.5 °F /  19.7 °C 56 °F /  13.3 °C 29.76in /  1007.7hPa NW 1.4mph /  2.3km/h 11mph /  17.7km/h 66.5% 0.00in /  0mm 350 W/m2
07:34 67.9 °F /  19.9 °C 56.5 °F /  13.6 °C 29.76in /  1007.7hPa NW 2mph /  3.2km/h 11mph /  17.7km/h 66.8% 0.00in /  0mm 364 W/m2
07:39 68.1 °F /  20.1 °C 56.2 °F /  13.4 °C 29.76in /  1007.7hPa WNW 2.7mph /  4.3km/h 11mph /  17.7km/h 65.7% 0.00in /  0mm 383 W/m2
07:44 68.2 °F /  20.1 °C 56.1 °F /  13.4 °C 29.76in /  1007.7hPa NW 2.5mph /  4km/h 12mph /  19.3km/h 65.2% 0.00in /  0mm 408 W/m2
07:49 68.5 °F /  20.3 °C 56.2 °F /  13.4 °C 29.76in /  1007.7hPa NW 0.8mph /  1.3km/h 12mph /  19.3km/h 64.9% 0.00in /  0mm 424 W/m2
07:54 68.9 °F /  20.5 °C 57.1 °F /  13.9 °C 29.76in /  1007.7hPa NNW 0.3mph /  0.5km/h 12mph /  19.3km/h 66.2% 0.00in /  0mm 441 W/m2
07:59 69.4 °F /  20.8 °C 56.7 °F /  13.7 °C 29.76in /  1007.7hPa NW 0.4mph /  0.6km/h 12mph /  19.3km/h 64.1% 0.00in /  0mm 457 W/m2
08:00 69.7 °F /  20.9 °C 57 °F /  13.9 °C 29.76in /  1007.7hPa Calm   12mph /  19.3km/h 64% 0.00in /  0mm 459 W/m2
08:09 70.2 °F /  21.2 °C 57 °F /  13.9 °C 29.76in /  1007.7hPa NW 4.2mph /  6.8km/h 11mph /  17.7km/h 62.9% 0.00in /  0mm 490 W/m2
08:14 70 °F /  21.1 °C 56.5 °F /  13.6 °C 29.76in /  1007.7hPa WNW 2.3mph /  3.7km/h 12mph /  19.3km/h 62.3% 0.00in /  0mm 506 W/m2
08:19 70 °F /  21.1 °C 57.5 °F /  14.2 °C 29.76in /  1007.7hPa NNW 0.2mph /  0.3km/h 12mph /  19.3km/h 64.5% 0.00in /  0mm 524 W/m2
08:24 70.2 °F /  21.2 °C 57.5 °F /  14.2 °C 29.76in /  1007.7hPa NW 1mph /  1.6km/h 12mph /  19.3km/h 64.2% 0.00in /  0mm 543 W/m2
08:29 70.6 °F /  21.4 °C 57.3 °F /  14.1 °C 29.76in /  1007.7hPa West 1.6mph /  2.6km/h 12mph /  19.3km/h 62.9% 0.00in /  0mm 561 W/m2
08:34 70.8 °F /  21.6 °C 57.7 °F /  14.3 °C 29.76in /  1007.7hPa WNW 2.2mph /  3.5km/h 12mph /  19.3km/h 63.2% 0.00in /  0mm 575 W/m2
08:39 71.1 °F /  21.7 °C 57.1 °F /  13.9 °C 29.76in /  1007.7hPa WNW 4.2mph /  6.8km/h 11mph /  17.7km/h 61.2% 0.00in /  0mm 594 W/m2
08:44 71.1 °F /  21.7 °C 56.8 °F /  13.8 °C 29.76in /  1007.7hPa WNW 3.9mph /  6.3km/h 14mph /  22.5km/h 60.6% 0.00in /  0mm 608 W/m2
08:49 71.3 °F /  21.8 °C 57.2 °F /  14 °C 29.76in /  1007.7hPa WNW 3mph /  4.8km/h 14mph /  22.5km/h 61% 0.00in /  0mm 626 W/m2
08:54 71.7 °F /  22.1 °C 57.6 °F /  14.2 °C 29.75in /  1007.3hPa WNW 5mph /  8km/h 15mph /  24.1km/h 61% 0.00in /  0mm 640 W/m2
08:59 72.1 °F /  22.3 °C 57.2 °F /  14 °C 29.76in /  1007.7hPa WNW 4.5mph /  7.2km/h 15mph /  24.1km/h 59.5% 0.00in /  0mm 656 W/m2
09:04 72.2 °F /  22.3 °C 56.9 °F /  13.8 °C 29.76in /  1007.7hPa WNW 3.9mph /  6.3km/h 15mph /  24.1km/h 58.7% 0.00in /  0mm 670 W/m2
09:09 72.3 °F /  22.4 °C 57.5 °F /  14.2 °C 29.76in /  1007.7hPa NW 3mph /  4.8km/h 11mph /  17.7km/h 59.5% 0.00in /  0mm 686 W/m2
09:14 72.5 °F /  22.5 °C 57.5 °F /  14.2 °C 29.76in /  1007.7hPa NW 3.5mph /  5.6km/h 17mph /  27.4km/h 59.2% 0.00in /  0mm 696 W/m2
09:19 72.9 °F /  22.7 °C 57.1 °F /  13.9 °C 29.76in /  1007.7hPa WNW 4.1mph /  6.6km/h 17mph /  27.4km/h 57.6% 0.00in /  0mm 712 W/m2
09:24 73.1 °F /  22.8 °C 56.8 °F /  13.8 °C 29.76in /  1007.7hPa NW 5.9mph /  9.5km/h 17mph /  27.4km/h 56.7% 0.00in /  0mm 726 W/m2
09:29 72.9 °F /  22.7 °C 56.7 °F /  13.7 °C 29.77in /  1008hPa NW 3.6mph /  5.8km/h 17mph /  27.4km/h 56.8% 0.00in /  0mm 740 W/m2
09:34 72.9 °F /  22.7 °C 57.3 °F /  14.1 °C 29.77in /  1008hPa WNW 2.5mph /  4km/h 17mph /  27.4km/h 58% 0.00in /  0mm 752 W/m2
09:39 73.1 °F /  22.8 °C 57.2 °F /  14 °C 29.77in /  1008hPa NW 3.7mph /  6km/h 16mph /  25.7km/h 57.4% 0.00in /  0mm 766 W/m2
09:44 73.4 °F /  23 °C 56.8 °F /  13.8 °C 29.77in /  1008hPa WNW 4mph /  6.4km/h 16mph /  25.7km/h 56.2% 0.00in /  0mm 779 W/m2
09:49 73.7 °F /  23.2 °C 57.7 °F /  14.3 °C 29.77in /  1008hPa NW 2.9mph /  4.7km/h 16mph /  25.7km/h 57.4% 0.00in /  0mm 793 W/m2
09:54 74.1 °F /  23.4 °C 57.4 °F /  14.1 °C 29.77in /  1008hPa NW 2.9mph /  4.7km/h 16mph /  25.7km/h 55.8% 0.00in /  0mm 809 W/m2
09:59 74.2 °F /  23.4 °C 55.4 °F /  13 °C 29.77in /  1008hPa NW 5mph /  8km/h 16mph /  25.7km/h 51.9% 0.00in /  0mm 824 W/m2
10:04 74 °F /  23.3 °C 54.8 °F /  12.7 °C 29.78in /  1008.4hPa WNW 5.2mph /  8.4km/h 16mph /  25.7km/h 51% 0.00in /  0mm 840 W/m2
10:09 74.1 °F /  23.4 °C 54.8 °F /  12.7 °C 29.78in /  1008.4hPa WNW 5.1mph /  8.2km/h 15mph /  24.1km/h 51% 0.00in /  0mm 851 W/m2
10:14 74 °F /  23.3 °C 54.1 °F /  12.3 °C 29.78in /  1008.4hPa WNW 5.1mph /  8.2km/h 15mph /  24.1km/h 49.8% 0.00in /  0mm 854 W/m2
10:19 73.8 °F /  23.2 °C 55.3 °F /  12.9 °C 29.78in /  1008.4hPa NW 2.8mph /  4.5km/h 15mph /  24.1km/h 52.4% 0.00in /  0mm 867 W/m2
10:24 74.3 °F /  23.5 °C 56.1 °F /  13.4 °C 29.78in /  1008.4hPa WNW 1.8mph /  2.9km/h 15mph /  24.1km/h 53.2% 0.00in /  0mm 877 W/m2
10:29 74.7 °F /  23.7 °C 56.3 °F /  13.5 °C 29.78in /  1008.4hPa WNW 1.6mph /  2.6km/h 15mph /  24.1km/h 52.7% 0.00in /  0mm 914 W/m2
10:34 75.2 °F /  24 °C 55.4 °F /  13 °C 29.78in /  1008.4hPa WNW 5.4mph /  8.7km/h 16mph /  25.7km/h 50.3% 0.00in /  0mm 907 W/m2
10:39 75.2 °F /  24 °C 54.1 °F /  12.3 °C 29.78in /  1008.4hPa WNW 5mph /  8km/h 16mph /  25.7km/h 47.9% 0.00in /  0mm 932 W/m2
10:44 75.1 °F /  23.9 °C 52.7 °F /  11.5 °C 29.78in /  1008.4hPa WNW 6.1mph /  9.8km/h 18mph /  29km/h 45.6% 0.00in /  0mm 983 W/m2
10:49 74.4 °F /  23.6 °C 50.7 °F /  10.4 °C 29.78in /  1008.4hPa WNW 7.2mph /  11.6km/h 18mph /  29km/h 43.4% 0.00in /  0mm 983 W/m2
10:54 74.1 °F /  23.4 °C 50.1 °F /  10.1 °C 29.78in /  1008.4hPa WNW 5.3mph /  8.5km/h 18mph /  29km/h 42.9% 0.00in /  0mm 970 W/m2
10:59 74.2 °F /  23.4 °C 50.3 °F /  10.2 °C 29.78in /  1008.4hPa NW 4.8mph /  7.7km/h 18mph /  29km/h 43.1% 0.00in /  0mm 939 W/m2
11:04 74.4 °F /  23.6 °C 49.8 °F /  9.9 °C 29.78in /  1008.4hPa NW 4.7mph /  7.6km/h 18mph /  29km/h 41.8% 0.00in /  0mm 935 W/m2
11:09 74.7 °F /  23.7 °C 49.3 °F /  9.6 °C 29.78in /  1008.4hPa WNW 5.2mph /  8.4km/h 17mph /  27.4km/h 40.7% 0.00in /  0mm 942 W/m2
11:14 74.7 °F /  23.7 °C 50.2 °F /  10.1 °C 29.78in /  1008.4hPa WNW 3.8mph /  6.1km/h 17mph /  27.4km/h 42% 0.00in /  0mm 951 W/m2
11:19 75 °F /  23.9 °C 50 °F /  10 °C 29.78in /  1008.4hPa WNW 7mph /  11.3km/h 17mph /  27.4km/h 41.5% 0.00in /  0mm 956 W/m2
11:24 75 °F /  23.9 °C 49.7 °F /  9.8 °C 29.78in /  1008.4hPa WNW 5mph /  8km/h 17mph /  27.4km/h 41.1% 0.00in /  0mm 962 W/m2
11:29 74.9 °F /  23.8 °C 49.8 °F /  9.9 °C 29.78in /  1008.4hPa NW 5mph /  8km/h 17mph /  27.4km/h 41.2% 0.00in /  0mm 970 W/m2
11:34 74.8 °F /  23.8 °C 49.3 °F /  9.6 °C 29.78in /  1008.4hPa WNW 5.3mph /  8.5km/h 17mph /  27.4km/h 40.7% 0.00in /  0mm 976 W/m2
11:39 74.8 °F /  23.8 °C 49.9 °F /  9.9 °C 29.78in /  1008.4hPa NW 3.4mph /  5.5km/h 16mph /  25.7km/h 41.6% 0.00in /  0mm 979 W/m2
11:44 75 °F /  23.9 °C 50.2 °F /  10.1 °C 29.78in /  1008.4hPa WNW 3.7mph /  6km/h 16mph /  25.7km/h 41.7% 0.00in /  0mm 986 W/m2
11:49 75.1 °F /  23.9 °C 49.2 °F /  9.6 °C 29.78in /  1008.4hPa WNW 5mph /  8km/h 16mph /  25.7km/h 40.1% 0.00in /  0mm 988 W/m2
11:54 75 °F /  23.9 °C 48.8 °F /  9.3 °C 29.79in /  1008.7hPa WNW 6.5mph /  10.5km/h 16mph /  25.7km/h 39.6% 0.00in /  0mm 991 W/m2
11:59 74.6 °F /  23.7 °C 47.6 °F /  8.7 °C 29.79in /  1008.7hPa WNW 5.7mph /  9.2km/h 16mph /  25.7km/h 38.4% 0.00in /  0mm 1000 W/m2
12:04 74.4 °F /  23.6 °C 48.1 °F /  8.9 °C 29.79in /  1008.7hPa WNW 9.7mph /  15.6km/h 16mph /  25.7km/h 39.3% 0.00in /  0mm 1000 W/m2
12:09 74.2 °F /  23.4 °C 48.2 °F /  9 °C 29.79in /  1008.7hPa NW 5.9mph /  9.5km/h 15mph /  24.1km/h 39.7% 0.00in /  0mm 1009 W/m2
12:14 74.1 °F /  23.4 °C 48.2 °F /  9 °C 29.79in /  1008.7hPa West 5.5mph /  8.9km/h 15mph /  24.1km/h 39.9% 0.00in /  0mm 1009 W/m2
12:19 74.2 °F /  23.4 °C 48.1 °F /  8.9 °C 29.79in /  1008.7hPa WNW 3.4mph /  5.5km/h 15mph /  24.1km/h 39.7% 0.00in /  0mm 1014 W/m2
12:24 74.4 °F /  23.6 °C 48.9 °F /  9.4 °C 29.79in /  1008.7hPa WNW 4.5mph /  7.2km/h 15mph /  24.1km/h 40.6% 0.00in /  0mm 1016 W/m2
12:29 74.6 °F /  23.7 °C 49.1 °F /  9.5 °C 29.79in /  1008.7hPa West 2.9mph /  4.7km/h 15mph /  24.1km/h 40.6% 0.00in /  0mm 1014 W/m2
12:34 74.8 °F /  23.8 °C 50.4 °F /  10.2 °C 29.79in /  1008.7hPa NW 4.1mph /  6.6km/h 15mph /  24.1km/h 42.5% 0.00in /  0mm 1016 W/m2
12:39 74.8 °F /  23.8 °C 49.9 °F /  9.9 °C 29.79in /  1008.7hPa West 4.7mph /  7.6km/h 14mph /  22.5km/h 41.5% 0.00in /  0mm 1020 W/m2
12:44 75 °F /  23.9 °C 50.6 °F /  10.3 °C 29.79in /  1008.7hPa WNW 2.3mph /  3.7km/h 14mph /  22.5km/h 42.5% 0.00in /  0mm 1025 W/m2
12:49 75.2 °F /  24 °C 49.8 °F /  9.9 °C 29.79in /  1008.7hPa WNW 5.4mph /  8.7km/h 16mph /  25.7km/h 40.9% 0.00in /  0mm 1039 W/m2
12:54 75.1 °F /  23.9 °C 49.4 °F /  9.7 °C 29.79in /  1008.7hPa WNW 5.2mph /  8.4km/h 16mph /  25.7km/h 40.3% 0.00in /  0mm 1027 W/m2
12:59 74.9 °F /  23.8 °C 48.2 °F /  9 °C 29.79in /  1008.7hPa WNW 5.8mph /  9.3km/h 16mph /  25.7km/h 38.8% 0.00in /  0mm 1028 W/m2
13:04 74.5 °F /  23.6 °C 48 °F /  8.9 °C 29.79in /  1008.7hPa NW 3.3mph /  5.3km/h 16mph /  25.7km/h 39.1% 0.00in /  0mm 1028 W/m2
13:09 74.6 °F /  23.7 °C 48.8 °F /  9.3 °C 29.79in /  1008.7hPa NNW 2.5mph /  4km/h 11mph /  17.7km/h 40.1% 0.00in /  0mm 1037 W/m2
13:14 74.9 °F /  23.8 °C 50.2 °F /  10.1 °C 29.79in /  1008.7hPa West 2.5mph /  4km/h 14mph /  22.5km/h 42% 0.00in /  0mm 1025 W/m2
13:19 75.1 °F /  23.9 °C 49.8 °F /  9.9 °C 29.79in /  1008.7hPa West 4mph /  6.4km/h 14mph /  22.5km/h 41% 0.00in /  0mm 1037 W/m2
13:24 75.2 °F /  24 °C 50.1 °F /  10.1 °C 29.79in /  1008.7hPa West 4.8mph /  7.7km/h 14mph /  22.5km/h 41.2% 0.00in /  0mm 1051 W/m2
13:29 75.1 °F /  23.9 °C 49.9 °F /  9.9 °C 29.79in /  1008.7hPa WNW 4.4mph /  7.1km/h 14mph /  22.5km/h 41.2% 0.00in /  0mm 1051 W/m2
13:34 74.9 °F /  23.8 °C 48.4 °F /  9.1 °C 29.79in /  1008.7hPa NNW 4mph /  6.4km/h 14mph /  22.5km/h 39.2% 0.00in /  0mm 1025 W/m2
13:39 74.8 °F /  23.8 °C 48.9 °F /  9.4 °C 29.79in /  1008.7hPa NW 1.7mph /  2.7km/h 14mph /  22.5km/h 40% 0.00in /  0mm 1034 W/m2
13:44 75 °F /  23.9 °C 49.9 °F /  9.9 °C 29.79in /  1008.7hPa WNW 3.4mph /  5.5km/h 14mph /  22.5km/h 41.2% 0.00in /  0mm 1141 W/m2
13:49 75.1 °F /  23.9 °C 50.4 °F /  10.2 °C 29.79in /  1008.7hPa WNW 2.3mph /  3.7km/h 14mph /  22.5km/h 41.8% 0.00in /  0mm 1141 W/m2
13:54 75.1 °F /  23.9 °C 50.4 °F /  10.2 °C 29.78in /  1008.4hPa WNW 1.7mph /  2.7km/h 14mph /  22.5km/h 42% 0.00in /  0mm 1086 W/m2
13:59 75.1 °F /  23.9 °C 49.8 °F /  9.9 °C 29.79in /  1008.7hPa WNW 4.3mph /  6.9km/h 15mph /  24.1km/h 40.9% 0.00in /  0mm 1030 W/m2
14:04 75.2 °F /  24 °C 49.3 °F /  9.6 °C 29.79in /  1008.7hPa West 2.1mph /  3.4km/h 15mph /  24.1km/h 40.1% 0.00in /  0mm 1011 W/m2
14:09 75.6 °F /  24.2 °C 50.6 °F /  10.3 °C 29.79in /  1008.7hPa WNW 3.3mph /  5.3km/h 15mph /  24.1km/h 41.6% 0.00in /  0mm 1011 W/m2
14:14 75.9 °F /  24.4 °C 50.1 °F /  10.1 °C 29.79in /  1008.7hPa WNW 4.8mph /  7.7km/h 15mph /  24.1km/h 40.3% 0.00in /  0mm 1020 W/m2
14:19 75.9 °F /  24.4 °C 49.8 °F /  9.9 °C 29.79in /  1008.7hPa WNW 3.7mph /  6km/h 15mph /  24.1km/h 39.8% 0.00in /  0mm 1020 W/m2
14:24 75.7 °F /  24.3 °C 50 °F /  10 °C 29.79in /  1008.7hPa NW 3.5mph /  5.6km/h 15mph /  24.1km/h 40.5% 0.00in /  0mm 986 W/m2
14:29 75.7 °F /  24.3 °C 49.8 °F /  9.9 °C 29.79in /  1008.7hPa WNW 2.6mph /  4.2km/h 15mph /  24.1km/h 40.2% 0.00in /  0mm 1027 W/m2
14:34 75.7 °F /  24.3 °C 48.7 °F /  9.3 °C 29.79in /  1008.7hPa WNW 3.1mph /  5km/h 15mph /  24.1km/h 38.6% 0.00in /  0mm 1007 W/m2
14:39 75.3 °F /  24.1 °C 48.4 °F /  9.1 °C 29.79in /  1008.7hPa WNW 7mph /  11.3km/h 17mph /  27.4km/h 38.7% 0.00in /  0mm 990 W/m2
14:44 75.1 °F /  23.9 °C 49 °F /  9.4 °C 29.79in /  1008.7hPa West 3.8mph /  6.1km/h 17mph /  27.4km/h 39.8% 0.00in /  0mm 976 W/m2
14:49 75.3 °F /  24.1 °C 49.7 °F /  9.8 °C 29.79in /  1008.7hPa WNW 2.3mph /  3.7km/h 17mph /  27.4km/h 40.4% 0.00in /  0mm 954 W/m2
14:54 75.7 °F /  24.3 °C 50.6 °F /  10.3 °C 29.79in /  1008.7hPa WNW 2.1mph /  3.4km/h 17mph /  27.4km/h 41.4% 0.00in /  0mm 962 W/m2
14:58 76.2 °F /  24.6 °C 51.2 °F /  10.7 °C 29.79in /  1008.7hPa WNW 5.9mph /  9.5km/h 17mph /  27.4km/h 41.6% 0.00in /  0mm 970 W/m2
Hartford County Weather
Compliments of Weather Underground - 2 mb